createdAt,value
2019-01-25T00:02:52.293Z,101211.52
2019-01-25T00:35:15.400Z,101217.64
2019-01-25T00:57:33.890Z,101208.74
2019-01-25T01:19:26.793Z,101213.15
2019-01-25T01:24:25.183Z,101224.53
2019-01-25T01:29:14.436Z,101223.30
2019-01-25T01:34:14.979Z,101222.18
2019-01-25T01:39:04.245Z,101225.78
2019-01-25T01:43:52.839Z,101225.87
2019-01-25T01:48:44.208Z,101228.40
2019-01-25T01:53:35.148Z,101226.13
2019-01-25T02:11:23.890Z,101228.91
2019-01-25T02:16:11.470Z,101233.30
2019-01-25T02:21:02.292Z,101230.80
2019-01-25T02:25:51.988Z,101227.30
2019-01-25T02:30:56.295Z,101223.94
2019-01-25T02:35:43.515Z,101227.08
2019-01-25T02:44:17.395Z,101231.77
2019-01-25T02:49:10.314Z,101225.98
2019-01-25T02:54:00.775Z,101225.56
2019-01-25T02:58:53.165Z,101233.42
2019-01-25T03:03:45.155Z,101235.27
2019-01-25T03:15:16.423Z,101234.63
2019-01-25T03:20:27.530Z,101240.38
2019-01-25T03:25:11.765Z,101238.36
2019-01-25T03:30:02.772Z,101233.78
2019-01-25T04:38:34.739Z,101211.53
2019-01-25T04:43:21.658Z,101214.76
2019-01-25T04:48:31.348Z,101214.23
2019-01-25T05:07:20.394Z,101214.09
2019-01-25T05:33:42.207Z,101248.66
2019-01-25T05:38:45.230Z,101249.81
2019-01-25T05:43:44.870Z,101271.81
2019-01-25T06:04:29.285Z,101278.96
2019-01-25T06:09:22.710Z,101281.14
2019-01-25T06:14:23.979Z,101278.04
2019-01-25T06:19:26.230Z,101273.77
2019-01-25T06:24:30.626Z,101271.16
2019-01-25T10:56:22.895Z,101249.44
2019-01-25T11:01:25.826Z,101238.59
2019-01-25T11:06:22.194Z,101239.53
2019-01-25T11:11:17.443Z,101244.69
2019-01-25T11:16:13.594Z,101220.80
2019-01-25T11:21:05.979Z,101219.30
2019-01-25T11:24:07.691Z,101224.70
2019-01-25T11:29:00.419Z,101210.97
2019-01-25T11:33:53.074Z,101214.73
2019-01-25T11:38:45.375Z,101204.66
2019-01-25T11:43:37.430Z,101202.28
2019-01-25T11:48:27.558Z,101196.41
2019-01-25T11:53:20.661Z,101180.95
2019-01-25T11:58:13.051Z,101193.56
2019-01-25T12:03:06.340Z,101200.05
2019-01-25T12:07:59.810Z,101207.41
2019-01-25T12:12:53.124Z,101213.77
2019-01-25T12:17:46.602Z,101204.77
2019-01-25T12:22:40.151Z,101213.44
2019-01-25T12:27:33.289Z,101210.16
2019-01-25T12:32:24.431Z,101209.23
2019-01-25T12:37:18.319Z,101184.65
2019-01-25T12:42:11.646Z,101175.24
2019-01-25T12:47:03.834Z,101163.27
2019-01-25T12:51:55.485Z,101160.17
2019-01-25T12:56:47.219Z,101166.69
2019-01-25T13:01:41.052Z,101171.26
2019-01-25T13:06:32.446Z,101168.00
2019-01-25T13:11:26.222Z,101158.87
2019-01-25T13:16:17.613Z,101152.03
2019-01-25T13:21:10.245Z,101143.03
2019-01-25T13:26:03.938Z,101151.94
2019-01-25T13:30:55.412Z,101147.96
2019-01-25T13:35:47.701Z,101143.78
2019-01-25T13:40:39.496Z,101138.48
2019-01-25T13:45:33.590Z,101136.97
2019-01-25T13:50:24.820Z,101136.13
2019-01-25T13:55:16.583Z,101126.92
2019-01-25T14:00:08.444Z,101106.19
2019-01-25T14:05:01.417Z,101096.73
2019-01-25T14:09:53.055Z,101085.75
2019-01-25T14:14:44.731Z,101065.83
2019-01-25T14:19:36.590Z,101064.63
2019-01-25T14:24:28.547Z,101046.13
2019-01-25T14:29:22.879Z,101057.94
2019-01-25T14:34:14.040Z,101052.08
2019-01-25T14:39:05.921Z,101035.44
2019-01-25T14:43:57.885Z,101036.68
2019-01-25T14:48:49.641Z,101036.09
2019-01-25T14:53:43.379Z,101045.97
2019-01-25T14:58:36.917Z,101050.17
2019-01-25T15:03:30.434Z,101057.09
2019-01-25T15:08:21.753Z,101062.01
2019-01-25T15:13:13.459Z,101066.22
2019-01-25T15:18:05.176Z,101072.17
2019-01-25T15:22:57.909Z,101059.75
2019-01-25T15:27:49.551Z,101036.77
2019-01-25T15:32:41.352Z,101032.45
2019-01-25T15:37:35.208Z,101032.42
2019-01-25T15:42:26.236Z,101024.39
2019-01-25T15:47:20.959Z,101025.11
2019-01-25T15:52:12.088Z,101026.89
2019-01-25T15:57:03.742Z,101019.86
2019-01-25T16:01:55.494Z,101016.09
2019-01-25T16:06:47.202Z,101012.03
2019-01-25T16:11:41.186Z,101007.53
2019-01-25T16:16:32.302Z,101007.27
2019-01-25T16:21:24.084Z,101000.46
2019-01-25T16:26:15.998Z,100981.98
2019-01-25T16:31:07.669Z,100985.73
2019-01-25T16:36:00.551Z,100976.39
2019-01-25T16:40:52.310Z,100963.74
2019-01-25T16:45:43.949Z,100940.80
2019-01-25T16:50:36.383Z,100946.13
2019-01-25T16:55:25.571Z,100943.72
2019-01-25T17:00:15.811Z,100954.45
2019-01-25T17:05:06.120Z,100957.29
2019-01-25T17:09:56.929Z,100943.52
2019-01-25T17:14:46.166Z,100938.02
2019-01-25T17:19:37.371Z,100930.31
2019-01-25T17:24:26.152Z,100926.08
2019-01-25T17:29:15.946Z,100915.16
2019-01-25T17:34:15.044Z,100915.43
2019-01-25T17:39:19.614Z,100917.07
2019-01-25T17:44:23.141Z,100905.73
2019-01-25T17:49:11.927Z,100895.92
2019-01-25T17:54:03.119Z,100901.22
2019-01-25T17:59:08.747Z,100890.27
2019-01-25T18:04:12.166Z,100898.05
2019-01-25T18:09:14.362Z,100894.29
2019-01-25T18:14:17.286Z,100893.38
2019-01-25T18:19:20.123Z,100880.02
2019-01-25T18:24:22.891Z,100884.36
2019-01-25T18:29:18.451Z,100883.72
2019-01-25T18:34:21.548Z,100875.44
2019-01-25T18:39:10.814Z,100877.53
2019-01-25T18:44:17.461Z,100867.32
2019-01-25T18:49:22.033Z,100853.02
2019-01-25T18:54:20.506Z,100867.52
2019-01-25T18:59:22.073Z,100847.31
2019-01-25T19:04:16.545Z,100840.56
2019-01-25T19:09:20.270Z,100844.50
2019-01-25T19:14:20.966Z,100844.48
2019-01-25T19:19:23.885Z,100851.88
2019-01-25T19:24:25.656Z,100842.58
2019-01-25T19:29:32.333Z,100833.86
2019-01-25T19:34:35.595Z,100828.02
2019-01-25T19:39:24.075Z,100829.41
2019-01-25T19:44:29.239Z,100822.68
2019-01-25T19:49:32.685Z,100825.76
2019-01-25T19:54:35.070Z,100809.75
2019-01-25T19:59:23.827Z,100816.55
2019-01-25T20:04:29.203Z,100810.29
2019-01-25T20:09:32.800Z,100808.75
2019-01-25T20:14:21.193Z,100803.80
2019-01-25T20:19:11.944Z,100798.61
2019-01-25T20:24:01.893Z,100791.12
2019-01-25T20:29:07.613Z,100784.19
2019-01-25T20:34:10.592Z,100787.38
2019-01-25T20:39:14.060Z,100790.81
2019-01-25T20:44:02.244Z,100785.36
2019-01-25T20:49:05.521Z,100797.00
2019-01-25T20:54:08.880Z,100787.81
2019-01-25T20:58:54.606Z,100776.73
2019-01-25T21:03:45.251Z,100787.19
2019-01-25T21:08:50.170Z,100776.02
2019-01-25T21:13:52.184Z,100766.25
2019-01-25T21:18:49.691Z,100783.98
2019-01-25T21:23:39.715Z,100774.33
2019-01-25T21:28:44.889Z,100768.27
2019-01-25T21:33:42.351Z,100773.62
2019-01-25T21:38:31.287Z,100764.34
2019-01-25T21:43:34.895Z,100757.11
2019-01-25T21:48:38.023Z,100754.94
2019-01-25T21:53:41.471Z,100756.48
2019-01-25T21:58:44.980Z,100749.47
2019-01-25T22:03:40.258Z,100747.36
2019-01-25T22:08:29.353Z,100742.53
2019-01-25T22:13:18.381Z,100738.94
2019-01-25T22:18:09.168Z,100738.67
2019-01-25T22:23:14.533Z,100739.58
2019-01-25T22:28:01.582Z,100718.42
2019-01-25T22:33:01.431Z,100718.80
2019-01-25T22:37:53.063Z,100709.56
2019-01-25T22:42:41.869Z,100723.59
2019-01-25T22:47:32.714Z,100725.73
2019-01-25T22:52:24.331Z,100734.44
2019-01-25T22:57:15.481Z,100727.20
2019-01-25T23:02:06.377Z,100707.22
2019-01-25T23:06:57.207Z,100712.45
2019-01-25T23:11:48.316Z,100705.17
2019-01-25T23:16:40.003Z,100707.35
2019-01-25T23:21:29.427Z,100712.11
2019-01-25T23:26:20.831Z,100712.69
2019-01-25T23:31:28.997Z,100721.70
2019-01-25T23:36:14.908Z,100723.70
2019-01-25T23:41:06.572Z,100712.53
2019-01-25T23:45:58.090Z,100704.39
2019-01-25T23:50:49.673Z,100701.56
2019-01-25T23:55:41.517Z,100709.97
